createdAt,value
2017-08-13T00:01:48.263Z,0
2017-08-13T00:06:54.336Z,0
2017-08-13T00:11:59.406Z,0
2017-08-13T00:17:04.477Z,0
2017-08-13T00:22:10.547Z,0
2017-08-13T00:27:15.956Z,0
2017-08-13T00:32:21.692Z,0
2017-08-13T00:37:27.767Z,0
2017-08-13T00:42:33.171Z,0
2017-08-13T00:47:38.576Z,0
2017-08-13T00:52:43.992Z,0
2017-08-13T00:57:50.067Z,0
2017-08-13T01:02:55.806Z,0
2017-08-13T01:08:01.544Z,0
2017-08-13T01:13:07.280Z,0
2017-08-13T01:18:13.350Z,0
2017-08-13T01:23:19.424Z,0
2017-08-13T01:28:25.159Z,0
2017-08-13T01:33:30.901Z,0
2017-08-13T01:38:36.637Z,0
2017-08-13T01:43:42.375Z,0
2017-08-13T01:48:47.447Z,0
2017-08-13T01:53:53.185Z,0
2017-08-13T01:58:58.919Z,0
2017-08-13T02:04:04.323Z,0
2017-08-13T02:09:10.059Z,0
2017-08-13T02:14:15.127Z,0
2017-08-13T02:19:21.194Z,0
2017-08-13T02:24:26.260Z,0
2017-08-13T02:29:32.007Z,0
2017-08-13T02:34:38.078Z,0
2017-08-13T02:39:43.480Z,0
2017-08-13T02:44:49.221Z,0
2017-08-13T02:49:54.960Z,0
2017-08-13T02:55:00.354Z,0
2017-08-13T03:00:06.094Z,0
2017-08-13T03:05:11.495Z,0
2017-08-13T03:10:17.235Z,0
2017-08-13T03:15:22.640Z,0
2017-08-13T03:20:28.710Z,0
2017-08-13T03:25:34.447Z,0
2017-08-13T03:30:39.854Z,2
2017-08-13T03:35:44.914Z,2
2017-08-13T03:40:50.656Z,4
2017-08-13T03:45:56.729Z,7
2017-08-13T03:51:02.134Z,9
2017-08-13T03:56:07.536Z,11
2017-08-13T04:01:13.273Z,20
2017-08-13T04:06:19.011Z,25
2017-08-13T04:11:24.414Z,35
2017-08-13T04:16:29.482Z,43
2017-08-13T04:21:34.547Z,67
2017-08-13T04:26:39.955Z,86
2017-08-13T04:31:45.023Z,98
2017-08-13T04:36:50.431Z,122
2017-08-13T04:41:55.837Z,143
2017-08-13T04:47:01.912Z,170
2017-08-13T04:52:07.315Z,261
2017-08-13T04:57:13.057Z,299
2017-08-13T05:02:18.803Z,338
2017-08-13T05:07:23.872Z,373
2017-08-13T05:12:29.616Z,430
2017-08-13T05:17:35.691Z,549
2017-08-13T05:22:40.760Z,495
2017-08-13T05:27:46.162Z,458
2017-08-13T05:32:52.234Z,456
2017-08-13T05:37:58.308Z,829
2017-08-13T05:43:04.049Z,862
2017-08-13T05:48:09.461Z,1200
2017-08-13T05:53:14.878Z,1052
2017-08-13T05:58:20.944Z,945
2017-08-13T06:03:26.015Z,1164
2017-08-13T06:08:32.093Z,1440
2017-08-13T06:13:37.841Z,1403
2017-08-13T06:18:43.245Z,1326
2017-08-13T06:23:49.322Z,1622
2017-08-13T06:28:55.067Z,1256
2017-08-13T06:34:00.807Z,652
2017-08-13T06:39:06.548Z,1247
2017-08-13T06:44:12.288Z,1077
2017-08-13T06:49:18.367Z,1761
2017-08-13T06:54:24.443Z,2424
2017-08-13T06:59:30.190Z,2487
2017-08-13T07:04:36.267Z,3070
2017-08-13T07:09:41.343Z,3052
2017-08-13T07:14:46.750Z,3483
2017-08-13T07:19:52.705Z,2522
2017-08-13T07:24:59.260Z,3410
2017-08-13T07:30:05.189Z,5286
2017-08-13T07:35:10.627Z,7670
2017-08-13T07:40:17.032Z,6950
2017-08-13T07:45:22.930Z,7144
2017-08-13T07:50:28.969Z,7549
2017-08-13T07:55:34.529Z,7862
2017-08-13T08:00:40.155Z,8235
2017-08-13T08:05:45.470Z,8116
2017-08-13T08:10:50.727Z,9928
2017-08-13T08:15:56.826Z,19888
2017-08-13T08:21:02.594Z,827
2017-08-13T08:26:08.687Z,3119
2017-08-13T08:31:14.435Z,1975
2017-08-13T08:36:20.190Z,4916
2017-08-13T08:41:25.608Z,1347
2017-08-13T08:46:30.685Z,775
2017-08-13T08:51:36.445Z,606
2017-08-13T08:56:42.192Z,537
2017-08-13T09:01:47.603Z,463
2017-08-13T09:06:53.352Z,647
2017-08-13T09:11:59.096Z,1456
2017-08-13T09:17:04.508Z,893
2017-08-13T09:22:09.583Z,572
2017-08-13T09:27:15.333Z,408
2017-08-13T09:32:20.739Z,551
2017-08-13T09:37:25.830Z,441
2017-08-13T09:42:31.238Z,339
2017-08-13T09:47:36.313Z,897
2017-08-13T09:52:41.394Z,8636
2017-08-13T09:57:45.835Z,1658
2017-08-13T10:02:51.262Z,1278
2017-08-13T10:07:57.004Z,2791
2017-08-13T10:13:01.749Z,2260
2017-08-13T10:18:07.857Z,3075
2017-08-13T10:23:13.584Z,1508
2017-08-13T10:28:19.332Z,2629
2017-08-13T10:33:24.757Z,2588
2017-08-13T10:38:29.840Z,2533
2017-08-13T10:43:35.280Z,2301
2017-08-13T10:48:40.352Z,2509
2017-08-13T10:53:45.428Z,2794
2017-08-13T10:58:50.507Z,1744
2017-08-13T11:03:55.924Z,1753
2017-08-13T11:09:01.338Z,1430
2017-08-13T11:14:06.755Z,1971
2017-08-13T11:19:12.602Z,2308
2017-08-13T11:24:17.350Z,1686
2017-08-13T11:29:23.095Z,2543
2017-08-13T11:34:28.505Z,2148
2017-08-13T11:39:33.917Z,2212
2017-08-13T11:44:39.662Z,1871
2017-08-13T11:49:45.743Z,2388
2017-08-13T11:54:51.487Z,2102
2017-08-13T11:59:57.568Z,1856
2017-08-13T12:05:03.316Z,1720
2017-08-13T12:10:09.394Z,2476
2017-08-13T12:15:15.148Z,1951
2017-08-13T12:20:21.234Z,1516
2017-08-13T12:25:26.652Z,1547
2017-08-13T12:30:32.400Z,965
2017-08-13T12:35:38.141Z,1095
2017-08-13T12:40:43.549Z,881
2017-08-13T12:45:48.962Z,1020
2017-08-13T12:50:54.035Z,1338
2017-08-13T12:56:00.114Z,1308
2017-08-13T13:01:06.196Z,1439
2017-08-13T13:06:10.940Z,762
2017-08-13T13:11:17.018Z,1388
2017-08-13T13:16:22.097Z,1570
2017-08-13T13:21:27.844Z,1333
2017-08-13T13:26:32.917Z,1483
2017-08-13T13:31:38.665Z,1367
2017-08-13T13:36:43.413Z,1160
2017-08-13T13:41:49.157Z,1263
2017-08-13T13:46:55.236Z,1376
2017-08-13T13:52:00.649Z,836
2017-08-13T13:57:06.058Z,764
2017-08-13T14:02:11.469Z,1086
2017-08-13T14:07:16.880Z,1066
2017-08-13T14:12:22.958Z,1054
2017-08-13T14:17:29.039Z,678
2017-08-13T14:22:34.115Z,801
2017-08-13T14:27:39.863Z,694
2017-08-13T14:32:45.610Z,849
2017-08-13T14:37:51.352Z,751
2017-08-13T14:42:56.429Z,570
2017-08-13T14:48:02.286Z,593
2017-08-13T14:53:08.022Z,623
2017-08-13T14:58:13.433Z,553
2017-08-13T15:03:18.510Z,457
2017-08-13T15:08:24.251Z,483
2017-08-13T15:13:29.996Z,430
2017-08-13T15:18:35.413Z,380
2017-08-13T15:23:41.157Z,405
2017-08-13T15:28:46.905Z,390
2017-08-13T15:33:52.644Z,374
2017-08-13T15:38:57.720Z,326
2017-08-13T15:44:03.802Z,365
2017-08-13T15:49:08.878Z,432
2017-08-13T15:54:14.286Z,372
2017-08-13T15:59:19.693Z,387
2017-08-13T16:04:25.107Z,322
2017-08-13T16:09:30.851Z,307
2017-08-13T16:14:36.146Z,299
2017-08-13T16:19:42.538Z,295
2017-08-13T16:24:47.968Z,288
2017-08-13T16:29:54.253Z,283
2017-08-13T16:35:00.356Z,279
2017-08-13T16:40:06.565Z,277
2017-08-13T16:45:12.666Z,275
2017-08-13T16:50:17.749Z,254
2017-08-13T16:55:23.492Z,254
2017-08-13T17:00:28.922Z,241
2017-08-13T17:05:34.334Z,252
2017-08-13T17:10:40.419Z,239
2017-08-13T17:15:45.832Z,232
2017-08-13T17:20:50.940Z,219
2017-08-13T17:25:56.346Z,204
2017-08-13T17:31:02.607Z,192
2017-08-13T17:36:08.421Z,190
2017-08-13T17:41:14.179Z,195
2017-08-13T17:46:19.261Z,179
2017-08-13T17:51:24.706Z,161
2017-08-13T17:56:29.851Z,153
2017-08-13T18:01:35.816Z,143
2017-08-13T18:06:41.567Z,133
2017-08-13T18:11:46.746Z,126
2017-08-13T18:16:52.490Z,115
2017-08-13T18:21:57.581Z,102
2017-08-13T18:27:03.328Z,87
2017-08-13T18:32:08.065Z,72
2017-08-13T18:37:13.475Z,57
2017-08-13T18:42:19.562Z,42
2017-08-13T18:47:24.969Z,30
2017-08-13T18:52:30.382Z,21
2017-08-13T18:57:35.118Z,12
2017-08-13T19:02:40.861Z,7
2017-08-13T19:07:46.268Z,4
2017-08-13T19:12:52.022Z,2
2017-08-13T19:17:57.768Z,2
2017-08-13T19:23:02.857Z,1
2017-08-13T19:28:08.630Z,0
2017-08-13T19:33:13.713Z,0
2017-08-13T19:38:19.482Z,0
2017-08-13T19:43:24.908Z,0
2017-08-13T19:48:30.997Z,0
2017-08-13T19:53:37.077Z,0
2017-08-13T19:58:43.161Z,0
2017-08-13T20:03:48.909Z,0
2017-08-13T20:08:54.644Z,0
2017-08-13T20:14:00.398Z,0
2017-08-13T20:19:05.810Z,0
2017-08-13T20:24:11.223Z,0
2017-08-13T20:29:16.966Z,0
2017-08-13T20:34:22.713Z,0
2017-08-13T20:39:28.463Z,0
2017-08-13T20:44:34.213Z,0
2017-08-13T20:49:39.626Z,0
2017-08-13T20:54:45.038Z,0
2017-08-13T20:59:50.785Z,0
2017-08-13T21:04:56.199Z,0
2017-08-13T21:10:01.943Z,0
2017-08-13T21:15:07.358Z,0
2017-08-13T21:20:13.439Z,0
2017-08-13T21:25:19.190Z,0
2017-08-13T21:30:24.930Z,0
2017-08-13T21:35:30.015Z,0
2017-08-13T21:40:36.102Z,0
2017-08-13T21:45:41.874Z,0
2017-08-13T21:50:47.303Z,0
2017-08-13T21:55:53.059Z,0
2017-08-13T22:00:58.812Z,0
2017-08-13T22:06:04.560Z,0
2017-08-13T22:11:10.309Z,0
2017-08-13T22:16:16.053Z,0
2017-08-13T22:21:21.465Z,0
2017-08-13T22:26:27.203Z,0
2017-08-13T22:31:32.944Z,0
2017-08-13T22:36:38.017Z,0
2017-08-13T22:41:43.082Z,0
2017-08-13T22:46:49.149Z,0
2017-08-13T22:51:54.548Z,0
2017-08-13T22:57:00.579Z,0
2017-08-13T23:02:05.979Z,0
2017-08-13T23:07:11.050Z,0
2017-08-13T23:12:16.452Z,0
2017-08-13T23:17:21.856Z,0
2017-08-13T23:22:27.260Z,0
2017-08-13T23:27:32.998Z,0
2017-08-13T23:32:39.068Z,0
2017-08-13T23:37:44.137Z,0
2017-08-13T23:42:49.876Z,0
2017-08-13T23:47:55.280Z,0
2017-08-13T23:53:00.683Z,0
2017-08-13T23:58:06.420Z,0
